Dodson, Texas
Current Conditions -  °F | °C
As of 6:53 PM on Monday 20 Oct 2014 (Local Time) from KCDS Reporting Station
Clear Clear  
Wind Chill: 77°   Ceiling: Unl
Heat Index: 78°   Visibility: 10mi
Dew Point: 54°   Wind: 7mph
Humidity: 45%   Direction: 170°S
Pressure: 30.01"   Gusts: NA
Location:  34.77°N, 100.02°W
Report Text: KCDS 202353Z AUTO 17006KT 10SM CLR 25/12 A3001 RMK AO2 SLP145 T02500122 10294 20250 55001
Loading
Personal Weather Stations






























Interactive Weather Map
Tropical Storm Tracking
New forecast layout! Learn more

10-Day Weather Forecast

Advertisements
Track Severe Weather on mobile